Time;durP1;ratioP1;P1;durP2;ratioP2;P2;SDS_P1;SDS_P2;PMS_P1;PMS_P2;Temp;Humidity;BMP_temperature;BMP_pressure;BME280_temperature;BME280_humidity;BME280_pressure;Samples;Min_cycle;Max_cycle;Signal;HPM_P1;HPM_P2
2021/12/03 00:00:11;;;;;;;20.10;17.98;;;;;;;;;;5027871;28;20029;-60
2021/12/03 00:02:36;;;;;;;29.75;17.73;;;;;;;;;;5030296;28;20022;-60
2021/12/03 00:05:01;;;;;;;21.53;18.30;;;;;;;;;;5028346;28;20079;-60
2021/12/03 00:07:27;;;;;;;22.23;16.42;;;;;;;;;;5030491;28;21181;-60
2021/12/03 00:09:52;;;;;;;25.27;17.83;;;;;;;;;;5029220;28;20399;-60
2021/12/03 00:12:17;;;;;;;21.60;18.40;;;;;;;;;;5029906;28;20122;-63
2021/12/03 00:14:42;;;;;;;29.90;22.23;;;;;;;;;;5028982;28;20439;-61
2021/12/03 00:17:07;;;;;;;27.40;19.45;;;;;;;;;;5030546;28;20510;-60
2021/12/03 00:19:32;;;;;;;28.80;19.05;;;;;;;;;;5028953;28;20041;-59
2021/12/03 00:21:57;;;;;;;26.03;19.33;;;;;;;;;;5030966;28;20060;-60
2021/12/03 00:24:23;;;;;;;27.90;20.45;;;;;;;;;;5029034;28;20420;-60
2021/12/03 00:26:48;;;;;;;31.20;22.13;;;;;;;;;;5030651;28;20021;-60
2021/12/03 00:29:13;;;;;;;38.20;21.70;;;;;;;;;;5029092;28;20444;-60
2021/12/03 00:31:38;;;;;;;30.63;21.50;;;;;;;;;;5030794;28;20105;-61
2021/12/03 00:34:03;;;;;;;34.28;21.30;;;;;;;;;;5030572;28;20830;-60
2021/12/03 00:36:29;;;;;;;27.83;22.67;;;;;;;;;;5046303;28;20404;-61
2021/12/03 00:38:58;;;;;;;32.08;23.80;;;;;;;;;;5050723;28;20030;-60
2021/12/03 00:41:23;;;;;;;;;;;;;;;;;;5049177;28;20567;-60
2021/12/03 00:43:51;;;;;;;37.13;28.08;;;;;;;;;;5050452;28;20313;-60
2021/12/03 00:46:17;;;;;;;44.80;26.13;;;;;;;;;;5048808;28;20041;-60
2021/12/03 00:48:43;;;;;;;40.70;25.77;;;;;;;;;;5050041;28;20049;-59
2021/12/03 00:51:09;;;;;;;35.67;25.27;;;;;;;;;;5048976;28;20041;-59
2021/12/03 00:53:35;;;;;;;28.05;25.08;;;;;;;;;;5050470;28;20013;-59
2021/12/03 00:56:01;;;;;;;33.70;28.63;;;;;;;;;;5048803;28;20032;-59
2021/12/03 00:58:26;;;;;;;35.33;25.73;;;;;;;;;;5052272;28;20083;-60
2021/12/03 01:00:51;;;;;;;30.92;25.98;;;;;;;;;;5044978;28;20065;-59
2021/12/03 01:03:16;;;;;;;30.67;25.35;;;;;;;;;;5033770;28;20033;-59
2021/12/03 01:05:42;;;;;;;36.58;28.08;;;;;;;;;;5032188;28;20065;-60
2021/12/03 01:08:07;;;;;;;36.77;26.27;;;;;;;;;;5034231;28;20029;-59
2021/12/03 01:10:32;;;;;;;40.35;30.27;;;;;;;;;;5032382;28;20488;-59
2021/12/03 01:12:57;;;;;;;32.40;28.40;;;;;;;;;;5033461;28;20025;-59
2021/12/03 01:15:26;;;;;;;32.83;28.85;;;;;;;;;;5032084;28;20069;-61
2021/12/03 01:17:51;;;;;;;38.75;28.63;;;;;;;;;;5033660;28;20030;-61
2021/12/03 01:20:16;;;;;;;35.22;27.33;;;;;;;;;;5031953;28;20033;-61
2021/12/03 01:22:42;;;;;;;42.63;28.55;;;;;;;;;;5033670;28;20025;-61
2021/12/03 01:25:08;;;;;;;33.72;26.23;;;;;;;;;;5032061;28;20030;-61
2021/12/03 01:27:33;;;;;;;34.88;26.00;;;;;;;;;;5033269;28;20040;-61
2021/12/03 01:29:58;;;;;;;29.38;22.75;;;;;;;;;;5032218;28;20053;-61
2021/12/03 01:32:24;;;;;;;32.20;24.50;;;;;;;;;;5033113;28;20112;-61
2021/12/03 01:34:49;;;;;;;33.35;25.15;;;;;;;;;;5035234;28;20470;-61
2021/12/03 01:37:14;;;;;;;26.77;23.90;;;;;;;;;;5053135;28;20640;-61
2021/12/03 01:39:39;;;;;;;32.25;26.73;;;;;;;;;;5051916;28;20439;-61
2021/12/03 01:42:04;;;;;;;30.08;26.67;;;;;;;;;;5053134;28;20557;-61
2021/12/03 01:44:30;;;;;;;40.17;26.77;;;;;;;;;;5051295;28;20083;-61
2021/12/03 01:46:55;;;;;;;36.58;26.38;;;;;;;;;;5053023;28;20071;-61
2021/12/03 01:49:23;;;;;;;30.73;23.33;;;;;;;;;;5050955;28;20048;-61
2021/12/03 01:51:48;;;;;;;36.33;28.75;;;;;;;;;;5053264;28;20481;-61
2021/12/03 01:54:13;;;;;;;43.70;30.25;;;;;;;;;;5051523;28;20021;-61
2021/12/03 01:56:39;;;;;;;32.17;28.37;;;;;;;;;;5052546;28;20253;-61
2021/12/03 01:59:04;;;;;;;40.40;29.40;;;;;;;;;;5052835;28;20805;-61
2021/12/03 02:01:30;;;;;;;33.55;28.30;;;;;;;;;;5050715;28;20083;-61
2021/12/03 02:03:56;;;;;;;37.85;30.35;;;;;;;;;;5052347;28;20599;-60
2021/12/03 02:06:23;;;;;;;36.28;28.85;;;;;;;;;;5050870;28;20037;-60
2021/12/03 02:08:48;;;;;;;42.13;29.63;;;;;;;;;;5051661;28;20017;-60
2021/12/03 02:11:14;;;;;;;38.15;27.92;;;;;;;;;;5050595;28;20040;-59
2021/12/03 02:13:39;;;;;;;43.85;31.60;;;;;;;;;;5052614;28;20141;-60
2021/12/03 02:16:06;;;;;;;43.60;31.42;;;;;;;;;;5038954;28;20061;-60
2021/12/03 02:18:31;;;;;;;30.92;27.17;;;;;;;;;;5032019;28;20029;-60
2021/12/03 02:20:57;;;;;;;43.07;30.83;;;;;;;;;;5031067;28;20025;-59
2021/12/03 02:23:23;;;;;;;44.25;31.20;;;;;;;;;;5032175;28;20972;-60
2021/12/03 02:25:49;;;;;;;40.85;31.52;;;;;;;;;;5030771;28;20140;-61
2021/12/03 02:28:16;;;;;;;41.75;31.35;;;;;;;;;;5032326;28;20021;-60
2021/12/03 02:30:41;;;;;;;39.88;29.58;;;;;;;;;;5030907;28;20095;-60
2021/12/03 02:33:07;;;;;;;36.65;29.55;;;;;;;;;;5032111;28;20025;-60
2021/12/03 02:35:32;;;;;;;43.67;31.35;;;;;;;;;;5039816;28;20137;-60
2021/12/03 02:37:58;;;;;;;35.03;29.13;;;;;;;;;;5052070;28;20071;-60
2021/12/03 02:40:23;;;;;;;42.47;31.33;;;;;;;;;;5048475;28;20080;-60
2021/12/03 02:42:49;;;;;;;41.20;28.73;;;;;;;;;;5052341;28;21151;-61
2021/12/03 02:45:15;;;;;;;35.65;28.02;;;;;;;;;;5050153;28;20396;-61
2021/12/03 02:47:40;;;;;;;36.45;30.17;;;;;;;;;;5051854;28;20029;-61
2021/12/03 02:50:07;;;;;;;46.83;32.38;;;;;;;;;;5050388;28;20072;-61
2021/12/03 02:52:33;;;;;;;47.58;34.25;;;;;;;;;;5051958;28;20078;-61
2021/12/03 02:54:58;;;;;;;46.47;35.17;;;;;;;;;;5050114;28;20037;-61
2021/12/03 02:57:23;;;;;;;41.38;33.25;;;;;;;;;;5051293;28;20028;-61
2021/12/03 02:59:48;;;;;;;38.83;32.10;;;;;;;;;;5048210;28;20052;-60
2021/12/03 03:02:14;;;;;;;44.38;31.10;;;;;;;;;;5031321;28;20102;-60
2021/12/03 03:04:39;;;;;;;33.90;28.77;;;;;;;;;;5032052;28;20021;-61
2021/12/03 03:07:04;;;;;;;37.77;30.67;;;;;;;;;;5051460;28;20021;-61
2021/12/03 03:09:31;;;;;;;35.53;29.40;;;;;;;;;;5049429;28;20892;-61
2021/12/03 03:11:56;;;;;;;37.67;31.23;;;;;;;;;;5051709;28;20111;-61
2021/12/03 03:14:22;;;;;;;35.70;30.80;;;;;;;;;;5049647;28;20150;-61
2021/12/03 03:16:47;;;;;;;52.17;32.53;;;;;;;;;;5051317;28;20013;-61
2021/12/03 03:19:14;;;;;;;37.13;30.83;;;;;;;;;;5049880;28;20092;-60
2021/12/03 03:21:39;;;;;;;36.20;29.70;;;;;;;;;;5050946;28;20062;-61
2021/12/03 03:24:07;;;;;;;41.00;33.65;;;;;;;;;;5051412;28;20021;-60
2021/12/03 03:26:32;;;;;;;48.78;33.00;;;;;;;;;;5049635;28;20098;-61
2021/12/03 03:28:58;;;;;;;47.70;36.28;;;;;;;;;;5051258;28;20024;-60
2021/12/03 03:31:23;;;;;;;44.10;35.60;;;;;;;;;;5049487;28;20037;-61
2021/12/03 03:33:48;;;;;;;43.38;34.28;;;;;;;;;;5051122;28;20028;-60
2021/12/03 03:36:13;;;;;;;47.95;35.30;;;;;;;;;;5046845;28;20039;-61
2021/12/03 03:38:39;;;;;;;48.55;36.00;;;;;;;;;;5051061;28;20056;-61
2021/12/03 03:41:04;;;;;;;54.20;36.60;;;;;;;;;;5048500;28;20120;-61
2021/12/03 03:43:29;;;;;;;57.80;37.00;;;;;;;;;;5050298;28;20466;-61
2021/12/03 03:45:54;;;;;;;53.83;38.10;;;;;;;;;;5049667;28;20443;-61
2021/12/03 03:48:20;;;;;;;65.18;39.13;;;;;;;;;;5050181;28;20066;-60
2021/12/03 03:50:45;;;;;;;47.88;38.78;;;;;;;;;;5049653;28;20157;-61
2021/12/03 03:53:10;;;;;;;61.05;40.38;;;;;;;;;;5051208;28;20053;-61
2021/12/03 03:55:36;;;;;;;52.40;39.42;;;;;;;;;;5036693;28;20528;-61
2021/12/03 03:58:02;;;;;;;46.55;36.50;;;;;;;;;;5031045;28;20380;-61
2021/12/03 04:00:29;;;;;;;48.95;38.42;;;;;;;;;;5029455;28;20433;-61
2021/12/03 04:02:54;;;;;;;49.70;38.75;;;;;;;;;;5030593;28;20105;-61
2021/12/03 04:05:20;;;;;;;50.63;40.30;;;;;;;;;;5029236;28;20120;-61
2021/12/03 04:07:45;;;;;;;52.60;40.57;;;;;;;;;;5031199;28;20040;-61
2021/12/03 04:10:10;;;;;;;55.20;39.23;;;;;;;;;;5028829;28;20452;-62
2021/12/03 04:12:35;;;;;;;65.15;40.95;;;;;;;;;;5030865;28;20986;-62
2021/12/03 04:15:01;;;;;;;52.00;41.20;;;;;;;;;;5029543;28;20029;-62
2021/12/03 04:17:26;;;;;;;51.73;38.67;;;;;;;;;;5030207;28;20022;-62
2021/12/03 04:19:52;;;;;;;61.35;44.03;;;;;;;;;;5029387;28;20444;-61
2021/12/03 04:22:23;;;;;;;69.82;43.85;;;;;;;;;;5030638;28;20423;-61
2021/12/03 04:24:48;;;;;;;57.17;42.38;;;;;;;;;;5028666;28;20475;-62
2021/12/03 04:27:13;;;;;;;62.40;43.53;;;;;;;;;;5030616;28;20080;-61
2021/12/03 04:29:38;;;;;;;55.72;42.10;;;;;;;;;;5029383;28;20435;-62
2021/12/03 04:32:03;;;;;;;62.23;46.37;;;;;;;;;;5031007;28;20080;-61
2021/12/03 04:34:29;;;;;;;66.50;44.53;;;;;;;;;;5032861;28;21668;-61
2021/12/03 04:36:54;;;;;;;67.10;44.88;;;;;;;;;;5054401;28;20021;-61
2021/12/03 04:39:19;;;;;;;76.90;47.47;;;;;;;;;;5052453;28;20380;-61
2021/12/03 04:41:44;;;;;;;72.35;47.58;;;;;;;;;;5054734;28;20025;-61
2021/12/03 04:44:09;;;;;;;79.73;48.63;;;;;;;;;;5053062;28;20167;-58
2021/12/03 04:46:35;;;;;;;69.63;49.45;;;;;;;;;;5053591;28;20774;-61
2021/12/03 04:49:00;;;;;;;75.10;49.55;;;;;;;;;;5054265;28;20465;-59
2021/12/03 04:51:25;;;;;;;82.05;50.03;;;;;;;;;;5052647;28;20037;-59
2021/12/03 04:53:50;;;;;;;85.05;50.13;;;;;;;;;;5053788;28;20028;-59
2021/12/03 04:56:16;;;;;;;76.55;50.58;;;;;;;;;;5048323;28;20041;-59
2021/12/03 04:58:41;;;;;;;90.50;53.58;;;;;;;;;;5034213;28;20465;-59
2021/12/03 05:01:06;;;;;;;76.18;49.28;;;;;;;;;;5038890;28;20037;-59
2021/12/03 05:03:31;;;;;;;72.78;46.97;;;;;;;;;;5039051;28;20014;-59
2021/12/03 05:05:58;;;;;;;96.80;54.10;;;;;;;;;;5018019;28;20463;-59
2021/12/03 05:08:24;;;;;;;97.72;55.00;;;;;;;;;;5013705;28;20076;-58
2021/12/03 05:10:50;;;;;;;89.95;55.70;;;;;;;;;;5024837;28;20033;-59
2021/12/03 05:13:16;;;;;;;100.32;56.10;;;;;;;;;;5033956;28;20032;-59
2021/12/03 05:15:42;;;;;;;98.63;57.17;;;;;;;;;;5030702;28;20120;-59
2021/12/03 05:18:08;;;;;;;108.68;59.55;;;;;;;;;;5030361;28;20104;-59
2021/12/03 05:20:34;;;;;;;112.88;59.28;;;;;;;;;;5019492;28;20482;-59
2021/12/03 05:22:59;;;;;;;117.30;64.05;;;;;;;;;;5013611;28;20029;-59
2021/12/03 05:25:25;;;;;;;113.72;60.90;;;;;;;;;;5012220;28;20489;-60
2021/12/03 05:27:51;;;;;;;117.03;60.15;;;;;;;;;;5013589;28;20026;-59
2021/12/03 05:30:16;;;;;;;142.10;66.50;;;;;;;;;;5011824;28;20061;-59
2021/12/03 05:32:41;;;;;;;123.65;63.50;;;;;;;;;;5013671;28;20041;-59
2021/12/03 05:35:07;;;;;;;110.50;61.45;;;;;;;;;;5012296;28;20041;-60
2021/12/03 05:37:32;;;;;;;120.72;64.45;;;;;;;;;;5012937;28;20056;-59
2021/12/03 05:39:57;;;;;;;136.27;63.83;;;;;;;;;;5012139;28;20080;-59
2021/12/03 05:42:23;;;;;;;121.90;59.13;;;;;;;;;;5013308;28;20029;-59
2021/12/03 05:44:48;;;;;;;125.93;57.28;;;;;;;;;;5011737;28;20026;-59
2021/12/03 05:47:13;;;;;;;131.00;66.57;;;;;;;;;;5013349;28;20025;-59
2021/12/03 05:49:38;;;;;;;157.98;61.55;;;;;;;;;;5011802;28;20485;-59
2021/12/03 05:52:04;;;;;;;139.00;68.03;;;;;;;;;;5013272;28;20057;-59
2021/12/03 05:54:29;;;;;;;128.70;61.35;;;;;;;;;;5011573;28;20197;-59
2021/12/03 05:56:54;;;;;;;130.68;60.13;;;;;;;;;;5013396;28;20622;-59
2021/12/03 05:59:20;;;;;;;131.67;60.97;;;;;;;;;;5011541;28;20393;-59
2021/12/03 06:01:45;;;;;;;130.48;63.17;;;;;;;;;;5012886;28;20025;-59
2021/12/03 06:04:10;;;;;;;133.38;64.15;;;;;;;;;;5011612;28;20046;-58
2021/12/03 06:06:35;;;;;;;134.35;63.50;;;;;;;;;;5012905;28;20033;-60
2021/12/03 06:09:00;;;;;;;141.70;60.45;;;;;;;;;;5012899;28;20532;-59
2021/12/03 06:11:26;;;;;;;129.13;62.35;;;;;;;;;;5021639;28;20409;-59
2021/12/03 06:13:51;;;;;;;150.98;64.38;;;;;;;;;;5022290;28;20037;-59
2021/12/03 06:16:17;;;;;;;153.65;57.50;;;;;;;;;;5019490;28;20088;-59
2021/12/03 06:18:42;;;;;;;146.20;60.58;;;;;;;;;;5023502;28;20009;-59
2021/12/03 06:21:08;;;;;;;142.00;60.80;;;;;;;;;;5020039;28;20041;-59
2021/12/03 06:23:33;;;;;;;174.55;70.10;;;;;;;;;;5023166;28;20443;-59
2021/12/03 06:26:00;;;;;;;146.93;67.80;;;;;;;;;;5019869;28;20026;-59
2021/12/03 06:28:25;;;;;;;154.00;66.30;;;;;;;;;;5022936;28;20440;-58
2021/12/03 06:30:51;;;;;;;163.00;70.88;;;;;;;;;;5012895;28;20036;-58
2021/12/03 06:33:16;;;;;;;147.82;69.80;;;;;;;;;;5017378;28;20049;-59
2021/12/03 06:35:41;;;;;;;141.07;63.93;;;;;;;;;;5021199;28;20489;-58
2021/12/03 06:38:06;;;;;;;167.70;65.35;;;;;;;;;;5020487;28;20472;-59
2021/12/03 06:40:31;;;;;;;133.32;69.10;;;;;;;;;;5020725;28;20759;-58
2021/12/03 06:42:57;;;;;;;149.32;67.78;;;;;;;;;;5022102;28;20014;-58
2021/12/03 06:45:22;;;;;;;129.90;64.60;;;;;;;;;;5018890;28;20058;-59
2021/12/03 06:47:47;;;;;;;146.25;70.18;;;;;;;;;;5029084;28;20468;-59
2021/12/03 06:50:16;;;;;;;145.43;67.65;;;;;;;;;;5028864;28;20076;-59
2021/12/03 06:52:44;;;;;;;146.38;64.40;;;;;;;;;;5031526;28;20022;-58
2021/12/03 06:55:14;;;;;;;156.38;70.60;;;;;;;;;;5030199;28;20040;-58
2021/12/03 06:57:41;;;;;;;131.43;59.85;;;;;;;;;;5032152;28;20028;-59
2021/12/03 07:00:07;;;;;;;139.70;66.00;;;;;;;;;;5030341;28;20120;-59
2021/12/03 07:02:32;;;;;;;133.82;61.72;;;;;;;;;;5031648;28;20867;-59
2021/12/03 07:04:57;;;;;;;128.90;64.17;;;;;;;;;;5029981;28;20021;-59
2021/12/03 07:07:22;;;;;;;142.40;66.22;;;;;;;;;;5031442;28;20480;-58
2021/12/03 07:09:48;;;;;;;147.88;64.88;;;;;;;;;;5030236;28;20101;-58
2021/12/03 07:12:15;;;;;;;140.98;66.68;;;;;;;;;;5031608;28;20021;-58
2021/12/03 07:14:40;;;;;;;138.65;64.28;;;;;;;;;;5030013;28;20037;-58
2021/12/03 07:17:06;;;;;;;156.30;64.65;;;;;;;;;;5031444;28;20519;-58
2021/12/03 07:19:31;;;;;;;145.30;69.93;;;;;;;;;;5032580;28;20021;-59
2021/12/03 07:21:57;;;;;;;143.48;64.50;;;;;;;;;;5051032;28;20372;-58
2021/12/03 07:24:22;;;;;;;136.60;66.70;;;;;;;;;;5047775;28;20013;-59
2021/12/03 07:26:47;;;;;;;147.37;66.93;;;;;;;;;;5031323;28;20368;-58
2021/12/03 07:29:12;;;;;;;149.77;64.80;;;;;;;;;;5028333;28;20455;-58
2021/12/03 07:31:38;;;;;;;137.32;67.10;;;;;;;;;;5030125;28;20029;-59
2021/12/03 07:34:03;;;;;;;136.20;60.55;;;;;;;;;;5031624;28;20505;-58
2021/12/03 07:36:28;;;;;;;139.35;66.45;;;;;;;;;;5028857;28;20041;-58
2021/12/03 07:38:54;;;;;;;133.37;62.80;;;;;;;;;;5031299;28;20523;-58
2021/12/03 07:41:19;;;;;;;137.40;65.18;;;;;;;;;;5029438;28;20451;-59
2021/12/03 07:43:44;;;;;;;121.72;62.33;;;;;;;;;;5030856;28;20014;-60
2021/12/03 07:46:09;;;;;;;132.02;64.40;;;;;;;;;;5029582;28;20108;-59
2021/12/03 07:48:36;;;;;;;124.80;63.37;;;;;;;;;;5029704;28;20025;-59
2021/12/03 07:51:01;;;;;;;146.20;65.80;;;;;;;;;;5028501;28;20452;-59
2021/12/03 07:53:26;;;;;;;125.05;63.67;;;;;;;;;;5030493;28;20067;-59
2021/12/03 07:55:52;;;;;;;133.40;59.23;;;;;;;;;;5029010;28;20485;-59
2021/12/03 07:58:17;;;;;;;121.97;61.67;;;;;;;;;;5029665;28;20455;-59
2021/12/03 08:00:44;;;;;;;133.07;66.93;;;;;;;;;;5028937;28;20036;-59
2021/12/03 08:03:09;;;;;;;134.70;62.50;;;;;;;;;;5030734;28;20010;-59
2021/12/03 08:05:34;;;;;;;135.13;68.20;;;;;;;;;;5028860;28;20037;-59
2021/12/03 08:07:59;;;;;;;113.70;64.32;;;;;;;;;;5033280;28;20419;-59
2021/12/03 08:10:25;;;;;;;118.40;63.33;;;;;;;;;;5033665;28;20030;-59
2021/12/03 08:12:50;;;;;;;126.68;62.53;;;;;;;;;;5034660;28;20993;-59
2021/12/03 08:15:15;;;;;;;120.25;57.67;;;;;;;;;;5033152;28;20114;-59
2021/12/03 08:17:41;;;;;;;102.57;59.83;;;;;;;;;;5035130;28;20032;-59
2021/12/03 08:20:07;;;;;;;92.20;56.28;;;;;;;;;;5041080;28;20033;-60
2021/12/03 08:22:32;;;;;;;102.55;58.70;;;;;;;;;;5054467;28;20888;-59
2021/12/03 08:24:58;;;;;;;95.78;53.25;;;;;;;;;;5053159;28;20400;-59
2021/12/03 08:27:23;;;;;;;91.28;55.67;;;;;;;;;;5054673;28;20115;-59
2021/12/03 08:29:48;;;;;;;96.20;55.03;;;;;;;;;;5052895;28;20056;-59
2021/12/03 08:32:13;;;;;;;84.40;54.03;;;;;;;;;;5054332;28;20028;-59
2021/12/03 08:34:39;;;;;;;88.97;51.88;;;;;;;;;;5053249;28;20095;-59
2021/12/03 08:37:06;;;;;;;87.57;52.67;;;;;;;;;;5054369;28;20464;-59
2021/12/03 08:39:31;;;;;;;75.93;48.22;;;;;;;;;;5053009;28;20454;-58
2021/12/03 08:41:57;;;;;;;73.60;46.50;;;;;;;;;;5048428;28;20014;-59
2021/12/03 08:44:22;;;;;;;64.90;42.72;;;;;;;;;;5038514;28;20021;-59
2021/12/03 08:46:52;;;;;;;70.80;42.15;;;;;;;;;;5034269;28;20287;-59
2021/12/03 08:49:28;;;;;;;64.75;35.63;;;;;;;;;;5032285;28;20562;-60
2021/12/03 08:57:12;;;;;;;55.50;33.85;;;;;;;;;;5033891;28;20088;-59
2021/12/03 08:59:38;;;;;;;58.95;30.67;;;;;;;;;;5032654;28;20413;-59
2021/12/03 09:02:03;;;;;;;48.38;29.08;;;;;;;;;;5033925;28;20100;-59
2021/12/03 09:04:29;;;;;;;51.17;30.92;;;;;;;;;;5032457;28;20037;-60
2021/12/03 09:06:54;;;;;;;34.25;23.02;;;;;;;;;;5033979;28;20526;-59
2021/12/03 09:09:19;;;;;;;47.35;23.33;;;;;;;;;;5031550;28;20033;-58
2021/12/03 09:11:44;;;;;;;30.73;19.93;;;;;;;;;;5033987;28;20022;-58
2021/12/03 09:14:17;;;;;;;34.60;21.90;;;;;;;;;;5032114;28;20416;-58
2021/12/03 09:16:44;;;;;;;37.85;19.80;;;;;;;;;;5033829;28;20025;-59
2021/12/03 09:19:18;;;;;;;31.95;19.63;;;;;;;;;;5032263;28;20040;-59
2021/12/03 09:21:43;;;;;;;28.30;17.58;;;;;;;;;;5033906;28;20024;-58
2021/12/03 09:24:12;;;;;;;31.67;17.38;;;;;;;;;;5032406;28;20022;-58
2021/12/03 09:26:40;;;;;;;33.50;19.33;;;;;;;;;;5033788;28;20104;-58
2021/12/03 09:29:08;;;;;;;29.77;18.30;;;;;;;;;;5031949;28;20029;-57
2021/12/03 09:31:37;;;;;;;22.73;16.98;;;;;;;;;;5033136;28;20026;-58
2021/12/03 09:34:07;;;;;;;35.25;17.17;;;;;;;;;;5033573;28;20438;-58
2021/12/03 09:36:32;;;;;;;35.97;15.00;;;;;;;;;;5031511;28;20041;-58
2021/12/03 09:38:57;;;;;;;37.83;18.40;;;;;;;;;;5033194;28;20028;-59
2021/12/03 09:41:22;;;;;;;31.85;19.35;;;;;;;;;;5031488;28;20444;-59
2021/12/03 09:43:49;;;;;;;42.53;17.13;;;;;;;;;;5032688;28;20026;-58
2021/12/03 09:46:33;;;;;;;39.85;16.92;;;;;;;;;;5030997;28;20451;-59
2021/12/03 09:57:11;;;;;;;24.05;14.93;;;;;;;;;;5027888;28;20033;-58
2021/12/03 10:02:32;;;;;;;35.45;15.02;;;;;;;;;;5033123;28;20104;-59
2021/12/03 10:10:47;;;;;;;25.92;14.75;;;;;;;;;;5031468;28;20076;-59
2021/12/03 10:13:10;;;;;;;29.25;14.80;;;;;;;;;;5032253;28;20428;-59
2021/12/03 10:15:44;;;;;;;20.23;11.27;;;;;;;;;;5031230;28;20043;-58
2021/12/03 10:18:19;;;;;;;26.90;12.68;;;;;;;;;;5032886;28;20380;-59
2021/12/03 10:23:38;;;;;;;27.58;12.45;;;;;;;;;;5031694;28;20115;-59
2021/12/03 10:29:03;;;;;;;25.02;13.63;;;;;;;;;;5051885;28;20094;-59
2021/12/03 10:39:35;;;;;;;24.52;11.32;;;;;;;;;;5050635;28;20025;-58
2021/12/03 10:42:12;;;;;;;29.17;12.32;;;;;;;;;;5051712;28;20079;-58
2021/12/03 10:44:58;;;;;;;22.80;10.93;;;;;;;;;;5050641;28;20056;-58
2021/12/03 10:47:43;;;;;;;16.02;10.25;;;;;;;;;;5052061;28;20029;-59
2021/12/03 10:58:45;;;;;;;28.95;13.20;;;;;;;;;;5051883;28;20082;-59
2021/12/03 11:02:04;;;;;;;17.67;10.40;;;;;;;;;;5050575;28;20429;-59
2021/12/03 11:04:48;;;;;;;19.33;12.00;;;;;;;;;;5049560;28;20033;-58
2021/12/03 11:13:13;;;;;;;20.05;10.68;;;;;;;;;;5051881;28;20040;-59
2021/12/03 11:25:50;;;;;;;26.35;9.07;;;;;;;;;;5046343;28;20492;-58
2021/12/03 11:27:24;;;;;;;20.17;10.90;;;;;;;;;;5049195;28;20029;-58
2021/12/03 11:46:41;;;;;;;26.42;11.10;;;;;;;;;;5049502;28;20037;-58
2021/12/03 11:55:32;;;;;;;14.27;9.25;;;;;;;;;;5047802;28;20118;-59
2021/12/03 11:58:02;;;;;;;30.42;11.93;;;;;;;;;;5046035;28;20065;-58
2021/12/03 12:25:52;;;;;;;23.20;9.98;;;;;;;;;;5028911;28;20025;-58
2021/12/03 12:34:28;;;;;;;23.10;10.32;;;;;;;;;;5030794;28;20029;-58
2021/12/03 12:37:54;;;;;;;19.00;10.02;;;;;;;;;;5031464;28;20037;-59
2021/12/03 12:42:51;;;;;;;24.27;10.13;;;;;;;;;;5050653;28;20036;-59
2021/12/03 12:46:15;;;;;;;12.00;8.50;;;;;;;;;;5048842;28;20033;-59
2021/12/03 13:10:38;;;;;;;14.00;8.27;;;;;;;;;;5032494;28;20611;-59
2021/12/03 13:16:15;;;;;;;24.13;12.20;;;;;;;;;;5038730;28;20510;-59
2021/12/03 13:31:04;;;;;;;20.85;8.10;;;;;;;;;;5020967;28;20507;-58
2021/12/03 13:59:51;;;;;;;19.55;9.52;;;;;;;;;;5050194;28;20029;-59
2021/12/03 14:08:11;;;;;;;15.25;7.82;;;;;;;;;;5052841;28;20542;-59
2021/12/03 14:18:34;;;;;;;14.32;9.82;;;;;;;;;;5026628;28;20038;-59
2021/12/03 14:24:03;;;;;;;14.18;8.00;;;;;;;;;;5046259;28;20040;-58
2021/12/03 14:41:10;;;;;;;17.65;10.02;;;;;;;;;;5044587;28;20485;-59
2021/12/03 14:43:44;;;;;;;12.68;8.77;;;;;;;;;;5044973;28;20028;-58
2021/12/03 14:46:19;;;;;;;12.32;8.48;;;;;;;;;;5037673;28;20037;-58
2021/12/03 14:57:11;;;;;;;17.75;9.40;;;;;;;;;;5038746;28;20400;-59
2021/12/03 14:59:40;;;;;;;18.67;10.57;;;;;;;;;;5038679;28;20037;-59
2021/12/03 15:02:24;;;;;;;21.25;9.52;;;;;;;;;;5048610;28;20108;-58
2021/12/03 15:05:12;;;;;;;16.98;10.73;;;;;;;;;;5046944;28;20041;-58
2021/12/03 15:07:39;;;;;;;17.48;12.02;;;;;;;;;;5034579;28;20048;-58
2021/12/03 15:10:13;;;;;;;19.15;11.02;;;;;;;;;;5045408;28;20036;-58
2021/12/03 15:28:24;;;;;;;13.93;8.80;;;;;;;;;;5046530;28;20479;-59
2021/12/03 15:36:23;;;;;;;17.80;12.88;;;;;;;;;;5026225;28;20279;-58
2021/12/03 15:39:06;;;;;;;20.27;13.85;;;;;;;;;;5039333;28;20095;-57
2021/12/03 15:51:51;;;;;;;18.08;13.40;;;;;;;;;;5034779;28;20393;-58
2021/12/03 16:08:17;;;;;;;15.30;13.80;;;;;;;;;;5046569;28;20484;-58
2021/12/03 16:10:54;;;;;;;20.23;13.98;;;;;;;;;;5040449;28;20061;-58
2021/12/03 16:13:33;;;;;;;34.17;16.63;;;;;;;;;;5039701;28;20033;-58
2021/12/03 16:21:42;;;;;;;18.17;16.45;;;;;;;;;;5036529;28;20099;-58
2021/12/03 16:45:35;;;;;;;19.75;15.23;;;;;;;;;;5032466;28;20044;-58
2021/12/03 16:48:52;;;;;;;17.42;14.77;;;;;;;;;;5035949;28;20025;-58
2021/12/03 16:53:44;;;;;;;18.38;15.63;;;;;;;;;;5043983;28;20392;-58
2021/12/03 16:56:25;;;;;;;19.52;16.45;;;;;;;;;;5050976;28;20040;-58
2021/12/03 16:58:51;;;;;;;19.63;17.45;;;;;;;;;;5050627;28;20035;-58
2021/12/03 17:01:33;;;;;;;19.20;17.27;;;;;;;;;;5052193;28;20041;-58
2021/12/03 17:12:12;;;;;;;17.60;15.77;;;;;;;;;;5036174;28;20037;-59
2021/12/03 17:26:10;;;;;;;17.23;14.30;;;;;;;;;;5032376;28;20492;-59
2021/12/03 17:48:15;;;;;;;16.23;14.82;;;;;;;;;;5015918;28;20034;-58
2021/12/03 17:51:01;;;;;;;16.52;14.30;;;;;;;;;;5042640;28;20107;-58
2021/12/03 17:53:52;;;;;;;14.88;13.35;;;;;;;;;;5033249;28;20146;-58
2021/12/03 17:56:20;;;;;;;14.57;13.07;;;;;;;;;;5032152;28;20025;-59
2021/12/03 17:58:49;;;;;;;17.50;15.77;;;;;;;;;;5047100;28;20031;-58
2021/12/03 18:06:45;;;;;;;11.52;10.52;;;;;;;;;;5043198;28;20038;-58
2021/12/03 18:17:06;;;;;;;13.52;12.27;;;;;;;;;;5042866;28;20030;-57
2021/12/03 18:46:43;;;;;;;16.00;14.38;;;;;;;;;;5044658;28;20033;-57
2021/12/03 18:51:56;;;;;;;14.55;12.60;;;;;;;;;;5030446;28;20583;-58
2021/12/03 18:57:02;;;;;;;12.07;10.68;;;;;;;;;;5031450;28;20034;-57
2021/12/03 18:59:27;;;;;;;13.55;12.13;;;;;;;;;;5045927;28;20435;-58
2021/12/03 19:01:53;;;;;;;19.25;14.55;;;;;;;;;;5034039;28;20017;-58
2021/12/03 19:07:02;;;;;;;13.50;12.27;;;;;;;;;;5031700;28;20051;-57
2021/12/03 19:09:32;;;;;;;12.65;11.30;;;;;;;;;;5038805;28;20040;-57
2021/12/03 19:12:02;;;;;;;13.45;12.32;;;;;;;;;;5033143;28;20028;-57
2021/12/03 19:14:30;;;;;;;14.43;13.13;;;;;;;;;;5029960;28;20195;-57
2021/12/03 19:16:56;;;;;;;13.70;12.43;;;;;;;;;;5030711;28;20093;-58
2021/12/03 19:19:21;;;;;;;15.88;12.68;;;;;;;;;;5029398;28;20587;-57
2021/12/03 19:21:48;;;;;;;14.88;12.93;;;;;;;;;;5047299;28;20028;-57
2021/12/03 19:24:15;;;;;;;14.27;13.07;;;;;;;;;;5049489;28;20103;-58
2021/12/03 19:26:44;;;;;;;16.30;13.88;;;;;;;;;;5050086;28;20383;-58
2021/12/03 19:29:13;;;;;;;14.07;12.82;;;;;;;;;;5049345;28;20013;-57
2021/12/03 19:31:38;;;;;;;;;;;;;;;;;;5036755;28;20025;-57
2021/12/03 19:34:03;;;;;;;14.00;12.65;;;;;;;;;;5031403;28;19905;-57
2021/12/03 19:36:30;;;;;;;14.13;12.80;;;;;;;;;;5029076;28;20627;-58
2021/12/03 19:38:56;;;;;;;13.55;12.35;;;;;;;;;;5035278;28;20542;-57
2021/12/03 19:44:01;;;;;;;13.27;11.90;;;;;;;;;;5031531;28;20026;-57
2021/12/03 19:46:35;;;;;;;12.35;11.35;;;;;;;;;;5029398;28;20037;-57
2021/12/03 19:49:08;;;;;;;18.88;13.15;;;;;;;;;;5037318;28;20023;-58
2021/12/03 19:51:40;;;;;;;13.13;12.10;;;;;;;;;;5035140;28;20052;-58
2021/12/03 19:54:05;;;;;;;13.40;12.13;;;;;;;;;;5031217;28;20018;-57
2021/12/03 19:56:32;;;;;;;12.70;11.50;;;;;;;;;;5041958;28;20036;-58
2021/12/03 19:58:58;;;;;;;12.52;11.50;;;;;;;;;;5045831;28;20013;-57
2021/12/03 20:01:24;;;;;;;13.20;12.13;;;;;;;;;;5041443;28;20456;-58
2021/12/03 20:03:53;;;;;;;13.27;12.07;;;;;;;;;;5050742;28;20041;-57
2021/12/03 20:06:18;;;;;;;12.50;11.40;;;;;;;;;;5048415;28;20116;-58
2021/12/03 20:08:44;;;;;;;11.77;10.75;;;;;;;;;;5050807;28;20108;-58
2021/12/03 20:11:10;;;;;;;12.55;11.45;;;;;;;;;;5038365;28;20128;-57
2021/12/03 20:13:36;;;;;;;12.10;10.98;;;;;;;;;;5030781;28;20025;-57
2021/12/03 20:16:21;;;;;;;12.90;11.63;;;;;;;;;;5029467;28;20050;-57
2021/12/03 20:18:54;;;;;;;14.55;13.23;;;;;;;;;;5030562;28;20044;-57
2021/12/03 20:21:22;;;;;;;12.77;11.57;;;;;;;;;;5040511;28;20064;-57
2021/12/03 20:26:29;;;;;;;14.27;12.80;;;;;;;;;;5047009;28;20071;-57
2021/12/03 20:29:01;;;;;;;12.63;11.63;;;;;;;;;;5050039;28;20567;-57
2021/12/03 20:31:29;;;;;;;12.82;11.68;;;;;;;;;;5035999;28;20046;-57
2021/12/03 20:36:32;;;;;;;14.85;13.30;;;;;;;;;;5048793;28;20037;-57
2021/12/03 20:39:02;;;;;;;14.85;13.55;;;;;;;;;;5050749;28;20719;-58
2021/12/03 20:41:44;;;;;;;13.00;11.90;;;;;;;;;;5035557;28;20492;-57
2021/12/03 20:46:56;;;;;;;15.33;13.83;;;;;;;;;;5045955;28;20033;-57
2021/12/03 20:54:23;;;;;;;14.73;13.43;;;;;;;;;;5029009;28;20026;-58
2021/12/03 21:08:02;;;;;;;16.60;14.90;;;;;;;;;;5050483;28;20055;-57